createdAt,value
2023-01-18T00:00:46.789Z,2.81
2023-01-18T00:06:02.166Z,2.75
2023-01-18T00:11:07.796Z,2.77
2023-01-18T00:16:16.181Z,3.20
2023-01-18T00:21:20.884Z,2.96
2023-01-18T00:26:25.494Z,3.77
2023-01-18T00:31:32.009Z,3.29
2023-01-18T00:36:37.286Z,3.21
2023-01-18T00:42:02.067Z,3.16
2023-01-18T00:47:09.208Z,3.21
2023-01-18T00:52:13.921Z,4.01
2023-01-18T00:57:19.051Z,3.41
2023-01-18T01:02:25.681Z,4.02
2023-01-18T01:07:30.916Z,3.78
2023-01-18T01:12:53.146Z,3.39
2023-01-18T01:18:20.188Z,3.29
2023-01-18T01:23:43.313Z,3.70
2023-01-18T01:28:59.912Z,4.73
2023-01-18T01:34:07.246Z,5.11
2023-01-18T01:39:14.162Z,4.10
2023-01-18T01:44:48.294Z,3.85
2023-01-18T01:49:57.671Z,3.30
2023-01-18T01:55:08.334Z,3.29
2023-01-18T02:00:19.919Z,3.45
2023-01-18T02:05:32.569Z,3.37
2023-01-18T02:10:41.613Z,3.16
2023-01-18T02:15:59.808Z,3.57
2023-01-18T02:21:20.139Z,3.26
2023-01-18T02:27:14.057Z,3.26
2023-01-18T02:32:32.826Z,3.60
2023-01-18T02:37:47.849Z,3.64
2023-01-18T02:43:11.617Z,4.17
2023-01-18T02:48:24.218Z,3.94
2023-01-18T02:53:29.906Z,4.25
2023-01-18T02:58:45.337Z,4.63
2023-01-18T03:04:11.255Z,4.57
2023-01-18T03:09:21.681Z,4.68
2023-01-18T03:14:41.065Z,4.92
2023-01-18T03:20:08.908Z,4.79
2023-01-18T03:25:18.182Z,5.34
2023-01-18T03:30:43.961Z,5.98
2023-01-18T03:35:59.615Z,6.23
2023-01-18T03:41:20.611Z,5.78
2023-01-18T03:46:33.920Z,6.70
2023-01-18T03:51:54.242Z,6.20
2023-01-18T03:57:07.160Z,5.76
2023-01-18T04:02:14.835Z,6.65
2023-01-18T04:07:26.154Z,6.41
2023-01-18T04:12:35.216Z,6.39
2023-01-18T04:17:42.576Z,6.26
2023-01-18T04:22:53.237Z,6.63
2023-01-18T04:27:58.101Z,6.65
2023-01-18T04:33:03.347Z,7.21
2023-01-18T04:38:09.543Z,6.83
2023-01-18T04:43:14.276Z,6.40
2023-01-18T04:48:26.306Z,7.12
2023-01-18T04:53:36.518Z,6.18
2023-01-18T04:58:42.807Z,5.65
2023-01-18T05:03:49.629Z,5.79
2023-01-18T05:08:58.916Z,5.93
2023-01-18T05:14:04.035Z,5.97
2023-01-18T05:19:09.345Z,5.44
2023-01-18T05:24:15.603Z,5.68
2023-01-18T05:29:20.254Z,6.12
2023-01-18T05:34:24.894Z,6.02
2023-01-18T05:39:31.799Z,5.81
2023-01-18T05:44:36.491Z,6.32
2023-01-18T05:49:42.060Z,6.60
2023-01-18T05:54:54.872Z,5.91
2023-01-18T06:00:00.020Z,6.22
2023-01-18T06:05:05.305Z,6.61
2023-01-18T06:10:12.706Z,6.03
2023-01-18T06:15:17.415Z,6.19
2023-01-18T06:20:22.458Z,6.52
2023-01-18T06:25:28.647Z,6.82
2023-01-18T06:30:35.922Z,5.96
2023-01-18T06:35:43.964Z,6.86
2023-01-18T06:40:51.162Z,7.44
2023-01-18T06:45:56.514Z,7.36
2023-01-18T06:51:01.407Z,7.59
2023-01-18T06:56:13.118Z,7.63
2023-01-18T07:01:23.588Z,7.95
2023-01-18T07:06:32.539Z,8.51
2023-01-18T07:17:25.484Z,9.52
2023-01-18T07:22:42.642Z,10.06
2023-01-18T07:28:00.438Z,10.36
2023-01-18T07:33:14.815Z,10.40
2023-01-18T07:38:25.140Z,10.66
2023-01-18T07:43:32.954Z,10.94
2023-01-18T07:48:39.053Z,10.98
2023-01-18T07:53:43.648Z,11.38
2023-01-18T07:58:49.827Z,10.99
2023-01-18T08:03:54.930Z,10.82
2023-01-18T08:08:59.804Z,10.97
2023-01-18T08:14:05.739Z,11.09
2023-01-18T08:19:14.755Z,11.52
2023-01-18T08:24:19.576Z,11.07
2023-01-18T08:29:25.949Z,11.65
2023-01-18T08:34:30.643Z,12.40
2023-01-18T08:39:40.753Z,12.90
2023-01-18T08:44:48.566Z,12.17
2023-01-18T08:49:53.120Z,12.02
2023-01-18T08:54:57.980Z,11.54
2023-01-18T09:00:05.926Z,10.81
2023-01-18T09:05:11.196Z,10.33
2023-01-18T09:10:16.223Z,11.40
2023-01-18T09:15:22.235Z,11.32
2023-01-18T09:20:27.792Z,10.93
2023-01-18T09:25:34.334Z,10.90
2023-01-18T09:30:40.562Z,9.87
2023-01-18T09:35:45.211Z,9.66
2023-01-18T09:40:49.747Z,9.39
2023-01-18T09:46:02.281Z,9.14
2023-01-18T09:51:20.636Z,8.83
2023-01-18T09:56:29.106Z,9.06
2023-01-18T10:01:37.092Z,9.54
2023-01-18T10:06:49.269Z,9.57
2023-01-18T10:11:59.783Z,9.86
2023-01-18T10:17:20.586Z,9.27
2023-01-18T10:22:54.966Z,9.16
2023-01-18T10:28:28.087Z,9.74
2023-01-18T10:33:41.104Z,10.16
2023-01-18T10:38:53.612Z,10.42
2023-01-18T10:44:01.015Z,10.06
2023-01-18T10:49:09.958Z,10.31
2023-01-18T10:54:25.210Z,10.03
2023-01-18T10:59:39.819Z,7.93
2023-01-18T11:04:47.023Z,7.16
2023-01-18T11:09:55.735Z,6.27
2023-01-18T11:15:17.667Z,5.95
2023-01-18T11:20:26.242Z,5.50
2023-01-18T11:25:42.595Z,4.76
2023-01-18T11:30:54.658Z,4.60
2023-01-18T11:36:02.595Z,4.37
2023-01-18T11:41:16.700Z,4.37
2023-01-18T11:46:34.983Z,4.05
2023-01-18T11:51:52.040Z,3.78
2023-01-18T11:56:59.874Z,3.54
2023-01-18T12:02:56.960Z,3.36
2023-01-18T12:08:23.616Z,3.21
2023-01-18T12:13:38.272Z,2.81
2023-01-18T12:19:15.803Z,2.65
2023-01-18T12:24:46.079Z,2.57
2023-01-18T12:30:07.426Z,2.61
2023-01-18T12:35:33.967Z,3.08
2023-01-18T12:40:53.992Z,2.92
2023-01-18T12:46:05.882Z,3.08
2023-01-18T12:51:16.161Z,3.47
2023-01-18T12:56:28.877Z,3.49
2023-01-18T13:01:40.296Z,3.79
2023-01-18T13:06:45.785Z,4.10
2023-01-18T13:11:52.200Z,4.16
2023-01-18T13:17:04.966Z,3.87
2023-01-18T13:22:17.900Z,3.99
2023-01-18T13:27:24.190Z,4.22
2023-01-18T13:32:34.802Z,3.76
2023-01-18T13:37:47.858Z,3.57
2023-01-18T13:42:53.940Z,3.59
2023-01-18T13:48:02.037Z,4.40
2023-01-18T13:53:31.573Z,4.74
2023-01-18T13:58:40.259Z,4.70
2023-01-18T14:03:48.752Z,4.16
2023-01-18T14:08:56.323Z,3.89
2023-01-18T14:14:26.480Z,3.81
2023-01-18T14:19:34.737Z,3.82
2023-01-18T14:24:52.864Z,3.93
2023-01-18T14:30:04.324Z,4.13
2023-01-18T14:35:19.812Z,4.24
2023-01-18T14:40:30.231Z,4.36
2023-01-18T14:45:41.690Z,4.59
2023-01-18T14:50:50.705Z,4.44
2023-01-18T14:56:11.087Z,4.05
2023-01-18T15:01:31.811Z,4.10
2023-01-18T15:06:41.754Z,3.91
2023-01-18T15:11:50.986Z,3.66
2023-01-18T15:16:58.907Z,3.71
2023-01-18T15:22:08.513Z,3.44
2023-01-18T15:27:18.653Z,3.45
2023-01-18T15:32:27.499Z,3.44
2023-01-18T15:37:34.469Z,3.70
2023-01-18T15:42:44.932Z,4.26
2023-01-18T15:47:53.425Z,4.42
2023-01-18T15:53:06.344Z,3.90
2023-01-18T15:58:15.807Z,4.32
2023-01-18T16:03:25.511Z,3.81
2023-01-18T16:08:30.245Z,3.72
2023-01-18T16:13:36.681Z,3.82
2023-01-18T16:18:44.806Z,3.78
2023-01-18T16:23:51.320Z,3.98
2023-01-18T16:28:55.965Z,3.98
2023-01-18T16:34:01.755Z,4.05
2023-01-18T16:39:06.226Z,5.19
2023-01-18T16:44:12.146Z,6.00
2023-01-18T16:49:18.312Z,5.79
2023-01-18T16:54:22.844Z,4.75
2023-01-18T16:59:27.389Z,4.37
2023-01-18T17:04:35.143Z,4.33
2023-01-18T17:09:47.956Z,4.53
2023-01-18T17:14:53.099Z,4.04
2023-01-18T17:19:58.985Z,3.88
2023-01-18T17:25:03.428Z,4.34
2023-01-18T17:30:08.908Z,5.39
2023-01-18T17:35:17.760Z,5.91
2023-01-18T17:40:30.957Z,5.88
2023-01-18T17:45:43.985Z,5.72
2023-01-18T17:50:51.811Z,6.09
2023-01-18T17:55:56.247Z,6.13
2023-01-18T18:01:06.511Z,6.35
2023-01-18T18:06:19.117Z,6.33
2023-01-18T18:11:31.072Z,6.06
2023-01-18T18:16:43.202Z,5.67
2023-01-18T18:21:50.918Z,5.52
2023-01-18T18:26:55.576Z,5.10
2023-01-18T18:32:00.239Z,4.78
2023-01-18T18:37:06.601Z,5.23
2023-01-18T18:42:11.220Z,4.80
2023-01-18T18:47:15.881Z,4.97
2023-01-18T18:52:21.989Z,5.17
2023-01-18T18:57:27.344Z,5.07
2023-01-18T19:02:31.962Z,5.83
2023-01-18T19:07:38.551Z,6.11
2023-01-18T19:12:43.154Z,5.97
2023-01-18T19:17:50.738Z,6.11
2023-01-18T19:22:57.032Z,5.99
2023-01-18T19:28:01.608Z,6.61
2023-01-18T19:33:06.804Z,7.12
2023-01-18T19:38:13.694Z,5.51
2023-01-18T19:43:18.125Z,5.18
2023-01-18T19:48:22.586Z,5.30
2023-01-18T19:53:28.656Z,4.85
2023-01-18T19:58:33.729Z,5.00
2023-01-18T20:03:38.430Z,5.38
2023-01-18T20:08:44.545Z,4.42
2023-01-18T20:13:50.961Z,3.68
2023-01-18T20:18:55.916Z,4.07
2023-01-18T20:24:02.055Z,4.56
2023-01-18T20:29:07.434Z,4.77
2023-01-18T20:34:11.946Z,4.51
2023-01-18T20:39:18.460Z,4.14
2023-01-18T20:44:27.266Z,5.57
2023-01-18T20:49:39.223Z,5.16
2023-01-18T20:54:46.210Z,4.55
2023-01-18T20:59:50.688Z,5.16
2023-01-18T21:04:55.341Z,4.25
2023-01-18T21:10:01.408Z,3.86
2023-01-18T21:15:10.037Z,3.49
2023-01-18T21:20:18.041Z,3.97
2023-01-18T21:25:23.982Z,4.57
2023-01-18T21:30:29.667Z,4.22
2023-01-18T21:35:34.095Z,4.55
2023-01-18T21:40:40.366Z,5.25
2023-01-18T21:45:57.110Z,5.18
2023-01-18T21:51:20.034Z,5.05
2023-01-18T21:56:26.260Z,3.20
2023-01-18T22:01:34.336Z,3.28
2023-01-18T22:06:38.907Z,2.99
2023-01-18T22:11:44.888Z,2.61
2023-01-18T22:16:49.745Z,2.61
2023-01-18T22:21:54.290Z,2.76
2023-01-18T22:27:00.184Z,3.42
2023-01-18T22:32:04.715Z,3.42
2023-01-18T22:37:09.248Z,2.97
2023-01-18T22:42:15.168Z,2.61
2023-01-18T22:47:19.785Z,3.59
2023-01-18T22:52:25.009Z,4.29
2023-01-18T22:57:31.033Z,4.13
2023-01-18T23:02:35.752Z,4.35
2023-01-18T23:07:40.366Z,4.51
2023-01-18T23:12:46.299Z,4.44
2023-01-18T23:17:51.463Z,4.62
2023-01-18T23:22:55.918Z,4.26
2023-01-18T23:28:03.432Z,3.77
2023-01-18T23:33:07.894Z,3.62
2023-01-18T23:38:14.931Z,4.29
2023-01-18T23:43:37.992Z,4.38
2023-01-18T23:48:59.681Z,4.70
2023-01-18T23:54:17.086Z,4.36
2023-01-18T23:59:24.938Z,4.76
